Time;durP1;ratioP1;P1;durP2;ratioP2;P2;SDS_P1;SDS_P2;PMS_P1;PMS_P2;Temp;Humidity;BMP_temperature;BMP_pressure;BME280_temperature;BME280_humidity;BME280_pressure;Samples;Min_cycle;Max_cycle;Signal;HPM_P1;HPM_P2
2022/11/02 00:03:37;;;;;;;7.15;1.45;;;;;;;12.23;100.00;101199.06;12785827;23;20013;-81
2022/11/02 00:08:37;;;;;;;7.40;1.23;;;;;;;12.19;100.00;101168.38;12789545;23;20075;-81
2022/11/02 00:13:38;;;;;;;8.98;1.65;;;;;;;12.30;100.00;101175.69;12809827;23;20020;-82
2022/11/02 00:18:38;;;;;;;11.68;1.50;;;;;;;12.27;100.00;101173.44;12760499;23;20023;-82
2022/11/02 00:23:40;;;;;;;8.18;1.30;;;;;;;11.78;100.00;101109.94;12760744;23;20028;-81
2022/11/02 00:28:41;;;;;;;5.32;1.42;;;;;;;12.19;100.00;101179.41;12760202;23;20072;-82
2022/11/02 00:33:41;;;;;;;8.45;1.20;;;;;;;11.91;100.00;101112.31;12760624;23;20020;-81
2022/11/02 00:38:42;;;;;;;5.85;1.50;;;;;;;12.23;100.00;101172.28;12810369;23;20020;-81
2022/11/02 00:43:42;;;;;;;13.43;1.20;;;;;;;12.09;100.00;101144.28;12785278;23;20043;-81
2022/11/02 00:48:43;;;;;;;5.90;1.35;;;;;;;12.20;100.00;101156.25;12783536;23;20040;-81
2022/11/02 00:53:43;;;;;;;8.50;1.38;;;;;;;12.14;100.00;101151.78;12783113;23;20043;-81
2022/11/02 00:58:43;;;;;;;8.45;1.40;;;;;;;11.79;100.00;101085.94;12808309;23;20009;-82
2022/11/02 01:03:44;;;;;;;5.43;0.95;;;;;;;11.96;100.00;101143.81;12759608;23;20012;-79
2022/11/02 01:08:44;;;;;;;7.45;1.13;;;;;;;11.89;100.00;101177.94;12760725;23;20024;-81
2022/11/02 01:13:45;;;;;;;7.97;2.00;;;;;;;11.87;100.00;101218.72;12759315;23;20021;-81
2022/11/02 01:18:46;;;;;;;12.85;2.53;;;;;;;11.49;100.00;101223.13;12783448;23;20032;-81
2022/11/02 01:23:46;;;;;;;9.68;1.40;;;;;;;10.96;100.00;101221.69;12807478;23;20013;-82
2022/11/02 01:28:47;;;;;;;6.03;1.38;;;;;;;10.61;100.00;101222.72;12784483;23;20036;-83
2022/11/02 01:33:47;;;;;;;3.20;0.93;;;;;;;10.12;100.00;101194.72;12783854;23;20024;-83
2022/11/02 01:38:48;;;;;;;5.10;1.05;;;;;;;10.05;100.00;101186.63;12760366;23;20024;-84
2022/11/02 01:43:51;;;;;;;4.82;1.00;;;;;;;10.09;100.00;101196.06;12762605;23;20009;-83
2022/11/02 01:48:56;;;;;;;7.88;2.53;;;;;;;10.17;100.00;101222.38;12784388;23;20104;-84
2022/11/02 01:53:59;;;;;;;3.30;1.03;;;;;;;10.16;100.00;101201.41;12785091;23;20511;-83
2022/11/02 01:59:01;;;;;;;8.48;1.75;;;;;;;9.95;100.00;101191.06;12759649;23;20023;-84
2022/11/02 02:04:02;;;;;;;6.95;1.58;;;;;;;9.61;100.00;101163.38;12808557;23;20084;-83
2022/11/02 02:09:03;;;;;;;10.77;1.40;;;;;;;9.90;100.00;101205.53;12784590;23;20009;-83
2022/11/02 02:14:08;;;;;;;9.65;2.63;;;;;;;9.87;100.00;101189.53;12783607;23;20021;-83
2022/11/02 02:19:52;;;;;;;7.63;2.97;;;;;;;9.77;100.00;101179.13;12782946;23;20059;-82
2022/11/02 02:25:12;;;;;;;15.50;3.30;;;;;;;9.88;100.00;101196.69;12789098;23;20019;-83
2022/11/02 02:30:13;;;;;;;14.88;3.15;;;;;;;9.86;100.00;101176.84;12784498;23;20021;-80
2022/11/02 02:35:24;;;;;;;16.98;4.13;;;;;;;9.95;100.00;101164.41;12784463;23;20009;-82
2022/11/02 02:40:27;;;;;;;11.50;4.30;;;;;;;9.99;100.00;101140.00;12784471;23;20012;-82
2022/11/02 02:45:34;;;;;;;10.38;3.42;;;;;;;9.96;100.00;101132.22;12834086;23;20031;-82
2022/11/02 02:50:47;;;;;;;13.45;3.72;;;;;;;9.73;100.00;101065.22;12787722;23;20353;-82
2022/11/02 02:55:47;;;;;;;14.00;3.70;;;;;;;10.00;100.00;101108.66;12788334;23;20016;-83
2022/11/02 03:00:48;;;;;;;9.63;2.42;;;;;;;10.08;100.00;101108.25;12787666;23;20016;-82
2022/11/02 03:06:19;;;;;;;10.63;3.28;;;;;;;10.44;100.00;101136.50;12763377;23;20016;-82
2022/11/02 03:11:19;;;;;;;12.05;2.55;;;;;;;10.46;100.00;101126.09;12784221;23;20075;-83
2022/11/02 03:16:37;;;;;;;14.10;2.42;;;;;;;10.49;100.00;101123.66;12762557;23;20106;-81
2022/11/02 03:21:42;;;;;;;7.85;1.52;;;;;;;10.48;100.00;101129.44;12838658;23;20015;-81
2022/11/02 03:27:16;;;;;;;7.10;1.50;;;;;;;10.48;100.00;101123.91;12762571;23;20458;-81
2022/11/02 03:32:43;;;;;;;7.28;1.77;;;;;;;10.32;100.00;101110.97;12730758;23;20550;-80
2022/11/02 03:37:52;;;;;;;6.97;1.57;;;;;;;10.07;100.00;101103.84;12767011;23;20477;-81
2022/11/02 03:42:53;;;;;;;5.22;1.60;;;;;;;10.08;100.00;101113.75;12813191;23;20036;-80
2022/11/02 03:47:55;;;;;;;8.25;1.65;;;;;;;10.09;100.00;101121.78;12778492;23;20485;-81
2022/11/02 03:52:57;;;;;;;8.05;1.60;;;;;;;9.56;100.00;101048.66;12761820;23;20020;-80
2022/11/02 03:57:58;;;;;;;6.38;1.60;;;;;;;10.13;100.00;101138.63;12786280;23;20024;-81
2022/11/02 04:02:59;;;;;;;7.60;1.42;;;;;;;9.98;100.00;101124.56;12762160;23;20032;-81
2022/11/02 04:29:16;;;;;;;10.50;1.15;;;;;;;9.85;100.00;101178.75;12819658;23;20013;-81
2022/11/02 04:34:16;;;;;;;7.47;1.40;;;;;;;9.76;100.00;101160.16;12812044;23;20020;-80
2022/11/02 04:39:17;;;;;;;11.82;3.42;;;;;;;9.83;100.00;101202.09;12787661;23;20012;-81
2022/11/02 04:44:17;;;;;;;6.40;1.42;;;;;;;9.31;100.00;101142.38;12759954;23;20021;-82
2022/11/02 04:49:18;;;;;;;10.27;1.40;;;;;;;9.87;100.00;101223.34;12785630;23;20020;-81
2022/11/02 04:54:18;;;;;;;6.43;1.35;;;;;;;9.44;100.00;101141.28;12760912;23;20009;-81
2022/11/02 04:59:19;;;;;;;9.60;1.58;;;;;;;9.85;100.00;101192.50;12785942;23;20347;-81
2022/11/02 05:04:19;;;;;;;8.48;1.35;;;;;;;9.86;100.00;101205.19;12811449;23;20452;-81
2022/11/02 05:09:20;;;;;;;4.85;1.20;;;;;;;9.86;100.00;101205.19;12786418;23;20374;-79
2022/11/02 05:14:20;;;;;;;6.78;1.20;;;;;;;9.76;100.00;101188.47;12785769;23;20366;-81
2022/11/02 05:19:21;;;;;;;9.90;1.35;;;;;;;9.72;100.00;101170.78;12759803;23;20398;-81
2022/11/02 05:24:21;;;;;;;9.20;1.27;;;;;;;9.80;100.00;101211.66;12759907;23;20017;-81
2022/11/02 05:29:22;;;;;;;7.10;1.63;;;;;;;9.43;100.00;101143.22;12785116;23;20016;-81
2022/11/02 05:34:22;;;;;;;14.00;1.95;;;;;;;9.84;100.00;101206.53;12811143;23;20009;-81
2022/11/02 05:39:23;;;;;;;13.15;1.60;;;;;;;10.02;100.00;101219.28;12809933;23;20020;-82
2022/11/02 05:44:23;;;;;;;11.63;2.00;;;;;;;10.12;100.00;101227.75;12784548;23;20013;-82
2022/11/02 05:49:24;;;;;;;6.32;1.65;;;;;;;9.99;100.00;101241.78;12785183;23;20017;-82
2022/11/02 05:54:24;;;;;;;14.98;2.20;;;;;;;9.88;100.00;101230.53;12759470;23;20372;-81
2022/11/02 05:59:25;;;;;;;11.48;2.00;;;;;;;9.93;100.00;101246.31;12760731;23;20031;-84
2022/11/02 06:04:25;;;;;;;15.60;2.03;;;;;;;9.88;100.00;101230.53;12783922;23;20079;-83
2022/11/02 06:09:26;;;;;;;14.10;3.25;;;;;;;9.94;100.00;101244.41;12760007;23;20442;-82
2022/11/02 06:14:26;;;;;;;7.05;1.77;;;;;;;9.90;100.00;101255.91;12760470;23;20020;-83
2022/11/02 06:19:27;;;;;;;12.63;2.25;;;;;;;9.87;100.00;101239.84;12781009;23;20012;-84
2022/11/02 06:24:27;;;;;;;10.70;1.63;;;;;;;9.87;100.00;101259.09;12856981;23;20017;-84
2022/11/02 06:29:28;;;;;;;12.13;2.30;;;;;;;9.79;100.00;101283.38;12762672;23;20009;-83
2022/11/02 06:34:28;;;;;;;10.85;1.75;;;;;;;9.79;100.00;101281.47;12789277;23;20059;-82
2022/11/02 06:39:29;;;;;;;17.27;2.50;;;;;;;9.83;100.00;101288.16;12764675;23;20031;-82
2022/11/02 06:44:29;;;;;;;13.90;3.15;;;;;;;9.82;100.00;101303.00;12765486;23;20016;-83
2022/11/02 06:49:30;;;;;;;11.20;2.40;;;;;;;9.63;100.00;101276.69;12762845;23;20043;-84
2022/11/02 06:54:30;;;;;;;10.80;2.30;;;;;;;10.05;100.00;101323.34;12787989;23;20016;-83
2022/11/02 06:59:31;;;;;;;10.95;1.63;;;;;;;10.02;100.00;101285.28;12787567;23;20005;-83
2022/11/02 07:04:31;;;;;;;11.23;1.95;;;;;;;10.30;100.00;101329.44;12763900;23;20012;-83
2022/11/02 07:09:32;;;;;;;13.45;3.40;;;;;;;10.17;100.00;101326.91;12784567;23;20009;-83
2022/11/02 07:14:32;;;;;;;14.90;2.47;;;;;;;10.27;100.00;101357.41;12758078;23;20017;-81
2022/11/02 07:19:33;;;;;;;11.23;2.53;;;;;;;10.24;100.00;101360.63;12810737;23;20021;-83
2022/11/02 07:24:33;;;;;;;16.90;2.67;;;;;;;10.29;100.00;101360.78;12762303;23;20009;-83
2022/11/02 07:29:34;;;;;;;12.82;2.75;;;;;;;10.37;100.00;101380.75;12863456;23;20020;-82
2022/11/02 07:34:34;;;;;;;12.40;1.70;;;;;;;10.38;100.00;101412.72;12787904;23;20013;-83
2022/11/02 07:39:35;;;;;;;11.35;2.30;;;;;;;10.33;100.00;101407.09;12763408;23;20017;-82
2022/11/02 07:44:35;;;;;;;16.42;2.80;;;;;;;10.43;100.00;101419.16;12761897;23;20013;-83
2022/11/02 07:49:36;;;;;;;15.32;2.47;;;;;;;10.26;100.00;101412.69;12761274;23;20032;-84
2022/11/02 07:54:36;;;;;;;16.13;3.60;;;;;;;10.28;100.00;101421.53;12810450;23;20016;-82
2022/11/02 07:59:37;;;;;;;14.63;3.45;;;;;;;10.30;100.00;101447.78;12812032;23;20020;-82
2022/11/02 08:04:37;;;;;;;11.30;2.35;;;;;;;10.24;100.00;101443.19;12787725;23;20019;-82
2022/11/02 08:09:38;;;;;;;14.52;2.25;;;;;;;10.24;100.00;101450.63;12760280;23;20032;-82
2022/11/02 08:14:38;;;;;;;8.93;2.30;;;;;;;10.19;100.00;101470.59;12759645;23;20031;-83
2022/11/02 08:19:39;;;;;;;11.93;2.08;;;;;;;10.29;100.00;101484.63;12761596;23;20325;-81
2022/11/02 08:24:39;;;;;;;17.25;3.00;;;;;;;10.44;100.00;101464.06;12785435;23;20005;-83
2022/11/02 08:29:40;;;;;;;7.45;1.63;;;;;;;10.54;100.00;101472.53;12810807;23;20017;-83
2022/11/02 08:34:40;;;;;;;9.88;2.42;;;;;;;10.65;100.00;101488.25;12810991;23;20017;-83
2022/11/02 08:39:41;;;;;;;16.10;3.20;;;;;;;10.77;100.00;101509.41;12785683;23;20024;-82
2022/11/02 08:44:41;;;;;;;9.32;1.42;;;;;;;10.85;100.00;101509.06;12784842;23;20075;-82
2022/11/02 08:49:42;;;;;;;10.57;1.63;;;;;;;10.93;100.00;101521.63;12783997;23;20024;-82
2022/11/02 08:54:43;;;;;;;7.78;1.58;;;;;;;11.03;100.00;101514.41;12784889;23;20012;-82
2022/11/02 08:59:43;;;;;;;8.95;1.45;;;;;;;10.82;100.00;101493.84;12762134;23;20013;-82
2022/11/02 09:04:43;;;;;;;18.60;1.83;;;;;;;10.97;100.00;101523.66;12835083;23;20020;-82
2022/11/02 09:09:44;;;;;;;6.40;1.15;;;;;;;11.06;100.00;101519.47;12759670;23;20025;-83
2022/11/02 09:14:44;;;;;;;4.93;1.23;;;;;;;11.11;100.00;101530.59;12785239;23;20013;-84
2022/11/02 09:19:45;;;;;;;8.50;1.60;;;;;;;11.03;100.00;101527.38;12785484;23;20025;-82
2022/11/02 09:24:45;;;;;;;9.85;1.00;;;;;;;11.32;100.00;101542.06;12785344;23;20009;-82
2022/11/02 09:29:46;;;;;;;3.72;0.82;;;;;;;11.27;100.00;101534.53;12860672;23;20434;-82
2022/11/02 09:34:49;;;;;;;8.27;1.15;;;;;;;11.67;100.00;101568.69;12785233;23;20439;-80
2022/11/02 09:39:50;;;;;;;7.22;1.15;;;;;;;11.95;100.00;101578.09;12786419;23;20489;-82
2022/11/02 09:45:00;;;;;;;6.32;1.50;;;;;;;11.70;100.00;101522.16;12784905;23;20027;-82
2022/11/02 09:50:01;;;;;;;7.70;1.27;;;;;;;12.22;100.00;101576.44;12785644;23;20078;-81
2022/11/02 09:55:09;;;;;;;10.00;2.00;;;;;;;12.71;100.00;101578.63;12761136;23;20009;-81
2022/11/02 10:00:13;;;;;;;12.35;1.50;;;;;;;12.89;100.00;101572.00;12767458;23;20020;-80
2022/11/02 10:05:38;;;;;;;7.38;1.20;;;;;;;12.43;100.00;101547.25;12815505;23;20013;-81
2022/11/02 10:10:41;;;;;;;7.82;1.25;;;;;;;12.93;100.00;101607.16;12838718;23;20047;-81
2022/11/02 10:15:44;;;;;;;10.13;2.00;;;;;;;12.80;100.00;101596.47;12837267;23;20031;-82
2022/11/02 10:20:47;;;;;;;5.68;1.25;;;;;;;13.04;100.00;101630.31;12813204;23;20019;-81
2022/11/02 10:25:48;;;;;;;5.63;1.17;;;;;;;13.11;100.00;101646.72;12791112;23;20013;-81
2022/11/02 10:30:48;;;;;;;7.47;1.67;;;;;;;13.11;100.00;101639.25;12866607;23;20132;-81
2022/11/02 10:36:16;;;;;;;7.07;1.10;;;;;;;13.01;100.00;101654.84;12789372;23;20469;-81
2022/11/02 10:41:49;;;;;;;8.70;1.40;;;;;;;12.71;100.00;101653.22;12815751;23;20036;-81
2022/11/02 10:47:16;;;;;;;12.60;2.35;;;;;;;12.74;100.00;101662.97;12788512;23;20020;-81
2022/11/02 10:52:16;;;;;;;6.80;1.38;;;;;;;13.00;100.00;101629.13;12851381;23;20075;-82
2022/11/02 10:57:20;;;;;;;11.05;1.42;;;;;;;12.97;100.00;101650.91;12761702;23;20023;-81
2022/11/02 11:02:20;;;;;;;9.88;1.33;;;;;;;12.56;100.00;101673.13;12787339;23;20005;-81
2022/11/02 11:07:25;;;;;;;12.30;2.28;;;;;;;12.76;100.00;101705.00;12786100;23;20005;-81
2022/11/02 11:12:33;;;;;;;6.25;1.10;;;;;;;13.30;100.00;101673.03;12761835;23;20146;-82
2022/11/02 11:17:35;;;;;;;11.60;1.10;;;;;;;13.24;100.00;101700.81;12766905;23;20013;-81
2022/11/02 11:22:36;;;;;;;12.52;1.85;;;;;;;13.04;100.00;101680.06;12794037;23;20039;-81
2022/11/02 11:27:55;;;;;;;7.20;1.10;;;;;;;13.03;100.00;101719.84;12811194;23;20020;-81
2022/11/02 11:32:57;;;;;;;9.45;1.17;;;;;;;11.97;100.00;101655.97;12810243;23;20021;-82
2022/11/02 11:38:03;;;;;;;8.00;1.52;;;;;;;11.80;100.00;101670.50;12784197;23;20017;-81
2022/11/02 11:43:04;;;;;;;14.70;2.20;;;;;;;12.23;100.00;101710.59;12761562;23;20048;-81
2022/11/02 11:48:43;;;;;;;7.82;2.17;;;;;;;12.26;100.00;101729.47;12834632;23;20701;-80
2022/11/02 11:54:06;;;;;;;13.18;2.83;;;;;;;12.19;100.00;101739.78;12890195;23;20020;-81
2022/11/02 11:59:25;;;;;;;9.68;1.20;;;;;;;11.90;100.00;101680.94;12850267;23;20020;-81
2022/11/02 12:04:27;;;;;;;9.70;1.60;;;;;;;12.75;100.00;101720.72;12871524;23;20036;-80
2022/11/02 12:09:30;;;;;;;11.27;1.45;;;;;;;13.46;100.00;101714.75;12847668;23;20031;-80
2022/11/02 12:14:33;;;;;;;7.55;0.90;;;;;;;14.13;100.00;101724.81;12897265;23;20027;-81
2022/11/02 12:19:48;;;;;;;5.00;1.05;;;;;;;14.92;100.00;101696.63;12923514;23;20033;-82
2022/11/02 12:25:07;;;;;;;6.07;0.63;;;;;;;14.89;100.00;101699.09;12878467;23;20075;-95
2022/11/02 12:30:20;;;;;;;8.82;1.63;;;;;;;14.39;100.00;101697.44;12929019;23;20039;-91
2022/11/02 12:35:49;;;;;;;7.15;1.20;;;;;;;14.51;100.00;101711.97;12925617;23;20020;-91
2022/11/02 12:41:11;;;;;;;8.10;1.00;;;;;;;14.78;100.00;101705.63;12897683;23;20020;-92
2022/11/02 12:46:21;;;;;;;9.52;1.30;;;;;;;15.07;100.00;101695.09;12842637;23;20021;-91
2022/11/02 12:51:25;;;;;;;8.18;1.40;;;;;;;16.02;100.00;101692.41;12835330;23;20027;-92
2022/11/02 12:56:31;;;;;;;6.82;1.30;;;;;;;16.26;100.00;101672.47;12786558;23;20009;-91
2022/11/02 13:01:37;;;;;;;8.63;1.55;;;;;;;16.47;100.00;101682.50;12785381;23;20027;-91
2022/11/02 13:06:41;;;;;;;6.50;0.95;;;;;;;16.21;97.23;101691.91;12810779;23;20017;-89
2022/11/02 13:11:43;;;;;;;5.32;1.15;;;;;;;15.93;99.22;101702.34;12786297;23;20072;-92
2022/11/02 13:17:05;;;;;;;8.02;1.15;;;;;;;16.86;98.76;101703.47;12836902;23;20537;-94
2022/11/02 13:22:07;;;;;;;11.02;1.35;;;;;;;16.62;98.53;101703.97;12836168;23;20013;-91
2022/11/02 13:27:24;;;;;;;10.07;1.13;;;;;;;15.69;100.00;101679.72;12809703;23;20017;-90
2022/11/02 13:32:42;;;;;;;5.72;1.10;;;;;;;14.55;100.00;101729.75;12834220;23;20023;-92
2022/11/02 13:37:48;;;;;;;11.48;1.63;;;;;;;14.12;100.00;101734.25;12785923;23;20358;-90
2022/11/02 13:43:26;;;;;;;9.80;1.45;;;;;;;14.41;100.00;101736.81;12834242;23;20013;-90
2022/11/02 13:48:35;;;;;;;6.25;1.52;;;;;;;15.18;100.00;101701.56;12853198;23;20382;-90
2022/11/02 13:53:38;;;;;;;7.65;1.25;;;;;;;16.11;100.00;101717.69;12809517;23;20020;-90
2022/11/02 13:58:52;;;;;;;5.25;1.08;;;;;;;16.06;100.00;101709.34;12859394;23;20072;-90
2022/11/02 14:04:12;;;;;;;11.82;1.20;;;;;;;15.64;100.00;101696.31;12859711;23;20013;-90
2022/11/02 14:09:28;;;;;;;10.73;1.30;;;;;;;15.27;100.00;101720.19;12814187;23;20376;-90
2022/11/02 14:14:29;;;;;;;8.48;1.00;;;;;;;14.21;100.00;101735.44;12858448;23;20017;-89
2022/11/02 14:19:31;;;;;;;7.03;1.23;;;;;;;13.86;100.00;101742.19;12858223;23;20016;-90
2022/11/02 14:24:31;;;;;;;10.48;1.73;;;;;;;13.76;100.00;101750.34;12858402;23;20012;-90
2022/11/02 14:29:41;;;;;;;12.82;1.95;;;;;;;13.43;100.00;101754.81;12861654;23;20020;-89
2022/11/02 14:35:14;;;;;;;15.30;1.88;;;;;;;13.18;100.00;101752.44;12860509;23;20013;-90
2022/11/02 14:40:37;;;;;;;9.27;1.40;;;;;;;13.13;100.00;101752.34;12861131;23;20446;-90
2022/11/02 14:45:42;;;;;;;4.22;1.15;;;;;;;13.23;100.00;101748.91;12840906;23;20052;-90
2022/11/02 14:50:48;;;;;;;11.77;1.55;;;;;;;14.21;100.00;101737.38;12836088;23;20021;-90
2022/11/02 14:55:52;;;;;;;5.85;1.38;;;;;;;14.00;100.00;101680.91;12763928;23;20044;-89
2022/11/02 15:00:55;;;;;;;10.57;1.30;;;;;;;13.66;100.00;101719.75;12812946;23;20470;-90
2022/11/02 15:06:19;;;;;;;8.80;1.48;;;;;;;13.35;100.00;101738.63;12789015;23;20016;-89
2022/11/02 15:11:40;;;;;;;9.65;1.10;;;;;;;12.90;100.00;101742.28;12836270;23;20325;-80
2022/11/02 15:16:41;;;;;;;8.65;1.55;;;;;;;12.57;100.00;101751.31;12862546;23;20024;-90
2022/11/02 15:21:41;;;;;;;12.15;2.38;;;;;;;12.23;100.00;101734.63;12836646;23;20009;-89
2022/11/02 15:26:51;;;;;;;12.95;1.65;;;;;;;12.13;100.00;101750.97;12811681;23;20020;-80
2022/11/02 15:31:54;;;;;;;7.65;1.10;;;;;;;11.94;100.00;101725.44;12836438;23;20017;-79
2022/11/02 15:36:55;;;;;;;10.13;1.60;;;;;;;11.83;100.00;101729.88;12810706;23;20023;-79
2022/11/02 15:43:06;;;;;;;9.82;2.40;;;;;;;11.74;100.00;101736.81;12834279;23;20509;-80
2022/11/02 15:48:31;;;;;;;10.43;1.75;;;;;;;11.60;100.00;101739.00;12586785;23;20575;-80
2022/11/02 15:53:56;;;;;;;13.13;2.17;;;;;;;11.49;100.00;101735.16;12791105;23;20463;-81
2022/11/02 15:59:11;;;;;;;13.50;2.05;;;;;;;11.35;100.00;101733.69;12798745;23;20025;-80
2022/11/02 16:04:18;;;;;;;8.07;1.85;;;;;;;11.02;100.00;101721.34;12800794;23;20079;-80
2022/11/02 16:09:27;;;;;;;7.75;1.50;;;;;;;10.99;100.00;101760.38;12773085;23;20032;-80
2022/11/02 16:14:31;;;;;;;16.35;2.97;;;;;;;10.86;100.00;101742.13;12800843;23;20068;-80
2022/11/02 16:19:31;;;;;;;15.02;1.65;;;;;;;10.83;100.00;101750.84;12748400;23;20048;-80
2022/11/02 16:24:32;;;;;;;12.77;1.70;;;;;;;10.67;100.00;101728.41;12797963;23;20066;-80
2022/11/02 16:29:32;;;;;;;9.05;1.80;;;;;;;10.57;100.00;101719.06;12773496;23;20036;-81
2022/11/02 16:34:33;;;;;;;9.82;2.47;;;;;;;10.56;100.00;101725.63;12773963;23;20017;-79
2022/11/02 16:39:36;;;;;;;10.35;1.63;;;;;;;10.46;100.00;101737.22;12747848;23;20013;-83
2022/11/02 16:44:36;;;;;;;11.07;1.60;;;;;;;10.34;100.00;101717.88;12751039;23;20500;-79
2022/11/02 16:49:52;;;;;;;11.18;1.65;;;;;;;10.50;100.00;101743.94;12717378;23;20040;-80
2022/11/02 16:54:52;;;;;;;7.80;1.42;;;;;;;10.38;100.00;101715.50;12796567;23;20017;-82
2022/11/02 16:59:57;;;;;;;6.05;1.27;;;;;;;10.35;100.00;101735.22;12722470;23;20021;-81
2022/11/02 17:04:58;;;;;;;8.93;2.33;;;;;;;10.25;100.00;101755.00;12722837;23;20044;-81
2022/11/02 17:09:59;;;;;;;12.45;1.73;;;;;;;10.02;100.00;101744.69;12746061;23;20025;-81
2022/11/02 17:15:10;;;;;;;6.57;1.42;;;;;;;9.93;100.00;101724.06;12721898;23;20017;-83
2022/11/02 17:20:14;;;;;;;8.73;1.90;;;;;;;9.97;100.00;101736.31;12743420;23;20486;-81
2022/11/02 17:25:26;;;;;;;8.30;1.65;;;;;;;9.84;100.00;101735.38;12762278;23;20451;-82
2022/11/02 17:30:32;;;;;;;8.77;2.00;;;;;;;9.80;100.00;101736.91;12688240;23;20466;-81
2022/11/02 17:35:33;;;;;;;7.57;1.27;;;;;;;9.74;100.00;101736.97;12699278;23;20085;-82
2022/11/02 17:40:33;;;;;;;14.38;2.63;;;;;;;9.47;100.00;101713.34;12703221;23;20013;-81
2022/11/02 17:45:38;;;;;;;8.35;1.88;;;;;;;9.57;100.00;101736.69;12692867;23;20017;-81
2022/11/02 17:50:38;;;;;;;14.25;1.80;;;;;;;9.53;100.00;101741.84;12748347;23;20027;-82
2022/11/02 17:55:39;;;;;;;12.27;1.98;;;;;;;9.47;100.00;101729.00;12745296;23;20044;-81
2022/11/02 18:00:41;;;;;;;9.23;1.70;;;;;;;9.55;100.00;101733.34;12734932;23;20363;-79
2022/11/02 18:05:42;;;;;;;11.95;1.73;;;;;;;9.39;100.00;101710.88;12800914;23;20068;-80
2022/11/02 18:10:43;;;;;;;11.07;2.00;;;;;;;9.24;100.00;101682.88;12749183;23;20017;-79
2022/11/02 18:15:44;;;;;;;10.38;2.85;;;;;;;9.40;100.00;101706.22;12778443;23;20068;-80
2022/11/02 18:20:44;;;;;;;14.65;2.40;;;;;;;8.99;100.00;101660.94;12757864;23;20009;-81
2022/11/02 18:25:45;;;;;;;11.90;2.75;;;;;;;9.43;100.00;101695.63;12745232;23;20013;-79
2022/11/02 18:30:47;;;;;;;10.80;2.72;;;;;;;9.41;100.00;101692.25;12775451;23;20016;-80
2022/11/02 18:35:47;;;;;;;9.20;2.25;;;;;;;9.39;100.00;101686.16;12774639;23;20013;-80
2022/11/02 18:40:48;;;;;;;13.07;2.88;;;;;;;9.23;100.00;101651.00;12799452;23;20039;-81
2022/11/02 18:45:48;;;;;;;13.48;2.85;;;;;;;9.32;100.00;101682.59;12778383;23;20017;-81
2022/11/02 18:50:49;;;;;;;14.60;3.25;;;;;;;9.30;100.00;101679.25;12772241;23;20025;-81
2022/11/02 18:55:49;;;;;;;12.20;2.00;;;;;;;9.11;100.00;101637.16;12774040;23;20040;-80
2022/11/02 19:00:50;;;;;;;8.00;1.80;;;;;;;9.03;100.00;101629.22;12773722;23;20032;-80
2022/11/02 19:11:14;;;;;;;10.40;2.15;;;;;;;9.29;100.00;101628.13;12756729;23;20063;-80
2022/11/02 19:16:15;;;;;;;15.48;1.80;;;;;;;9.35;100.00;101631.88;12696511;23;20017;-80
2022/11/02 19:21:15;;;;;;;8.93;2.10;;;;;;;9.26;100.00;101612.06;12799539;23;20477;-81
2022/11/02 19:26:16;;;;;;;11.90;2.42;;;;;;;9.01;100.00;101571.78;12749022;23;20450;-80
2022/11/02 19:31:17;;;;;;;8.73;1.90;;;;;;;9.25;100.00;101604.91;12772336;23;20091;-80
2022/11/02 19:36:17;;;;;;;12.48;2.00;;;;;;;9.09;100.00;101574.22;12748040;23;20009;-81
2022/11/02 19:41:18;;;;;;;11.95;2.45;;;;;;;9.04;100.00;101573.22;12696085;23;20350;-81
2022/11/02 19:46:19;;;;;;;10.38;2.40;;;;;;;9.04;100.00;101576.81;12746593;23;20027;-79
2022/11/02 19:51:24;;;;;;;14.13;1.88;;;;;;;9.05;100.00;101562.00;12748769;23;20024;-80
2022/11/02 19:56:26;;;;;;;12.05;2.90;;;;;;;8.77;100.00;101515.00;12727422;23;20037;-82
2022/11/02 20:01:31;;;;;;;10.30;2.10;;;;;;;9.11;100.00;101564.91;12772018;23;20047;-82
2022/11/02 20:06:39;;;;;;;9.18;2.13;;;;;;;9.17;100.00;101570.31;12747192;23;20021;-82
2022/11/02 20:11:43;;;;;;;9.15;2.50;;;;;;;9.04;100.00;101538.34;12746192;23;20048;-82
2022/11/02 20:16:43;;;;;;;14.82;2.28;;;;;;;9.08;100.00;101549.72;12733773;23;20013;-81
2022/11/02 20:21:44;;;;;;;13.35;2.45;;;;;;;8.99;100.00;101551.06;12722445;23;20029;-80
2022/11/02 20:26:44;;;;;;;13.85;2.72;;;;;;;8.97;100.00;101548.56;12769228;23;20020;-81
2022/11/02 20:31:45;;;;;;;20.88;3.90;;;;;;;8.95;100.00;101539.72;12747264;23;20052;-83
2022/11/02 20:36:46;;;;;;;9.73;2.00;;;;;;;8.89;100.00;101538.72;12723666;23;20028;-81
2022/11/02 20:41:46;;;;;;;15.35;3.53;;;;;;;8.75;100.00;101511.63;12746566;23;20033;-80
2022/11/02 20:46:47;;;;;;;9.45;2.25;;;;;;;8.78;100.00;101519.41;12771281;23;20097;-80
2022/11/02 20:51:48;;;;;;;13.60;2.60;;;;;;;8.88;100.00;101533.44;12767167;23;20020;-80
2022/11/02 20:56:49;;;;;;;8.73;2.80;;;;;;;8.94;100.00;101549.00;12721825;23;20009;-79
2022/11/02 21:01:50;;;;;;;11.40;2.47;;;;;;;9.00;100.00;101537.13;12721321;23;20032;-79
2022/11/02 21:06:50;;;;;;;20.80;2.72;;;;;;;9.09;100.00;101523.91;12730663;23;20016;-80
2022/11/02 21:17:10;;;;;;;7.97;2.13;;;;;;;9.14;100.00;101512.28;12798371;23;20397;-79
2022/11/02 21:22:10;;;;;;;9.50;2.58;;;;;;;9.00;100.00;101470.38;12776141;23;20013;-80
2022/11/02 21:27:11;;;;;;;10.80;1.95;;;;;;;9.21;100.00;101489.13;12733551;23;20069;-78
2022/11/02 21:32:11;;;;;;;12.15;2.20;;;;;;;9.29;100.00;101487.97;12800434;23;20075;-80
2022/11/02 21:37:12;;;;;;;10.60;1.88;;;;;;;8.88;100.00;101423.59;12770074;23;20009;-81
2022/11/02 21:42:12;;;;;;;13.45;2.00;;;;;;;9.37;100.00;101484.91;12769064;23;20111;-80
2022/11/02 21:47:13;;;;;;;7.43;1.60;;;;;;;9.22;100.00;101446.00;12745740;23;20021;-80
2022/11/02 21:52:13;;;;;;;14.10;2.47;;;;;;;9.50;100.00;101473.72;12748341;23;20025;-79
2022/11/02 21:57:14;;;;;;;8.85;1.50;;;;;;;9.35;100.00;101454.06;12773922;23;20040;-79
2022/11/02 22:02:16;;;;;;;11.45;2.55;;;;;;;9.26;100.00;101426.09;12725224;23;20034;-79
2022/11/02 22:07:16;;;;;;;8.27;1.63;;;;;;;9.33;100.00;101456.22;12772342;23;20056;-78
2022/11/02 22:17:36;;;;;;;12.23;1.77;;;;;;;9.31;100.00;101444.63;12801184;23;20501;-80
2022/11/02 22:22:36;;;;;;;12.50;1.92;;;;;;;9.25;100.00;101438.13;12774181;23;20036;-81
2022/11/02 22:27:37;;;;;;;13.38;2.03;;;;;;;9.31;100.00;101428.13;12800346;23;20029;-80
2022/11/02 22:32:37;;;;;;;11.50;1.63;;;;;;;9.37;100.00;101427.22;12749359;23;20028;-80
2022/11/02 22:42:57;;;;;;;8.68;1.88;;;;;;;9.47;100.00;101413.75;12775394;23;20048;-82
2022/11/02 22:47:57;;;;;;;10.35;2.63;;;;;;;9.49;100.00;101392.34;12799206;23;20044;-81
2022/11/02 22:52:58;;;;;;;14.35;2.33;;;;;;;9.44;100.00;101378.47;12772920;23;20024;-79
2022/11/02 22:57:58;;;;;;;16.83;2.40;;;;;;;9.72;100.00;101389.91;12759033;23;20120;-80
2022/11/02 23:02:59;;;;;;;11.45;1.88;;;;;;;9.82;100.00;101393.75;12772923;23;20021;-78
2022/11/02 23:07:59;;;;;;;15.25;2.67;;;;;;;9.65;100.00;101341.38;12800924;23;20025;-80
2022/11/02 23:13:00;;;;;;;10.25;2.38;;;;;;;9.89;100.00;101366.97;12746425;23;20025;-80
2022/11/02 23:18:00;;;;;;;7.40;1.98;;;;;;;10.05;100.00;101372.84;12724242;23;20009;-80
2022/11/02 23:33:40;;;;;;;9.02;2.40;;;;;;;10.16;100.00;101333.47;12776930;23;20017;-80
2022/11/02 23:44:17;;;;;;;8.32;2.13;;;;;;;10.16;100.00;101330.72;12777621;23;20016;-80
2022/11/02 23:49:18;;;;;;;10.82;2.13;;;;;;;10.19;100.00;101341.28;12775788;23;20322;-79
2022/11/02 23:59:37;;;;;;;8.85;2.33;;;;;;;10.34;100.00;101315.22;12861699;23;20020;-80
